sensor_id;sensor_type;location;lat;lon;timestamp;pressure;altitude;pressure_sealevel;temperature;humidity
80333;BME280;69652;51.864;-2.246;2024-03-02T00:02:13;98830.91;;;4.53;88.05
80333;BME280;69652;51.864;-2.246;2024-03-02T00:04:39;98825.44;;;4.58;87.93
80333;BME280;69652;51.864;-2.246;2024-03-02T00:07:06;98825.53;;;4.53;88.46
80333;BME280;69652;51.864;-2.246;2024-03-02T00:09:32;98831.53;;;4.50;87.64
80333;BME280;69652;51.864;-2.246;2024-03-02T00:11:59;98831.69;;;4.45;88.02
80333;BME280;69652;51.864;-2.246;2024-03-02T00:14:25;98825.34;;;4.41;89.10
80333;BME280;69652;51.864;-2.246;2024-03-02T00:16:51;98829.25;;;4.34;89.01
80333;BME280;69652;51.864;-2.246;2024-03-02T00:19:17;98833.19;;;4.37;89.50
80333;BME280;69652;51.864;-2.246;2024-03-02T00:21:42;98825.34;;;4.41;89.18
80333;BME280;69652;51.864;-2.246;2024-03-02T00:24:21;98821.81;;;4.31;88.99
80333;BME280;69652;51.864;-2.246;2024-03-02T00:26:47;98835.72;;;4.33;89.66
80333;BME280;69652;51.864;-2.246;2024-03-02T00:29:15;98824.81;;;4.30;88.94
80333;BME280;69652;51.864;-2.246;2024-03-02T00:31:42;98827.19;;;4.31;89.13
80333;BME280;69652;51.864;-2.246;2024-03-02T00:34:08;98825.00;;;4.33;90.11
80333;BME280;69652;51.864;-2.246;2024-03-02T00:36:33;98825.09;;;4.28;89.38
80333;BME280;69652;51.864;-2.246;2024-03-02T00:38:59;98819.25;;;4.26;89.57
80333;BME280;69652;51.864;-2.246;2024-03-02T00:41:27;98823.53;;;4.27;89.38
80333;BME280;69652;51.864;-2.246;2024-03-02T00:44:03;98825.41;;;4.27;89.80
80333;BME280;69652;51.864;-2.246;2024-03-02T00:49:02;98817.25;;;4.32;91.13
80333;BME280;69652;51.864;-2.246;2024-03-02T00:51:30;98820.72;;;4.32;91.47
80333;BME280;69652;51.864;-2.246;2024-03-02T00:53:59;98821.84;;;4.40;90.26
80333;BME280;69652;51.864;-2.246;2024-03-02T00:56:25;98818.88;;;4.42;89.61
80333;BME280;69652;51.864;-2.246;2024-03-02T00:58:53;98819.84;;;4.46;89.49
80333;BME280;69652;51.864;-2.246;2024-03-02T01:01:19;98813.06;;;4.48;90.22
80333;BME280;69652;51.864;-2.246;2024-03-02T01:03:48;98819.03;;;4.45;89.03
80333;BME280;69652;51.864;-2.246;2024-03-02T01:06:17;98815.53;;;4.36;88.88
80333;BME280;69652;51.864;-2.246;2024-03-02T01:08:43;98812.47;;;4.29;88.79
80333;BME280;69652;51.864;-2.246;2024-03-02T01:11:09;98813.09;;;4.26;88.80
80333;BME280;69652;51.864;-2.246;2024-03-02T01:13:34;98817.94;;;4.15;88.74
80333;BME280;69652;51.864;-2.246;2024-03-02T01:16:01;98816.34;;;4.14;88.11
80333;BME280;69652;51.864;-2.246;2024-03-02T01:18:27;98803.72;;;4.15;88.36
80333;BME280;69652;51.864;-2.246;2024-03-02T01:20:52;98806.09;;;4.16;88.43
80333;BME280;69652;51.864;-2.246;2024-03-02T01:23:20;98801.97;;;4.10;88.28
80333;BME280;69652;51.864;-2.246;2024-03-02T01:25:49;98799.28;;;4.10;89.91
80333;BME280;69652;51.864;-2.246;2024-03-02T01:28:15;98797.09;;;4.12;88.61
80333;BME280;69652;51.864;-2.246;2024-03-02T01:30:41;98796.59;;;4.10;89.37
80333;BME280;69652;51.864;-2.246;2024-03-02T01:33:06;98788.53;;;4.10;89.29
80333;BME280;69652;51.864;-2.246;2024-03-02T01:35:32;98790.13;;;4.11;89.23
80333;BME280;69652;51.864;-2.246;2024-03-02T01:37:58;98791.06;;;4.15;88.39
80333;BME280;69652;51.864;-2.246;2024-03-02T01:40:24;98785.09;;;4.18;88.07
80333;BME280;69652;51.864;-2.246;2024-03-02T01:42:54;98783.22;;;4.19;88.00
80333;BME280;69652;51.864;-2.246;2024-03-02T01:45:20;98785.59;;;4.20;87.71
80333;BME280;69652;51.864;-2.246;2024-03-02T01:47:45;98770.75;;;4.23;88.81
80333;BME280;69652;51.864;-2.246;2024-03-02T01:50:11;98778.97;;;4.26;89.38
80333;BME280;69652;51.864;-2.246;2024-03-02T01:52:38;98774.69;;;4.25;87.96
80333;BME280;69652;51.864;-2.246;2024-03-02T01:55:05;98769.31;;;4.25;87.72
80333;BME280;69652;51.864;-2.246;2024-03-02T01:57:32;98774.75;;;4.34;88.41
80333;BME280;69652;51.864;-2.246;2024-03-02T01:59:58;98772.56;;;4.36;88.88
80333;BME280;69652;51.864;-2.246;2024-03-02T02:02:23;98777.13;;;4.35;87.97
80333;BME280;69652;51.864;-2.246;2024-03-02T02:04:49;98760.69;;;4.37;88.95
80333;BME280;69652;51.864;-2.246;2024-03-02T02:07:14;98773.81;;;4.39;87.84
80333;BME280;69652;51.864;-2.246;2024-03-02T02:09:43;98767.81;;;4.42;88.67
80333;BME280;69652;51.864;-2.246;2024-03-02T02:12:11;98766.25;;;4.41;89.02
80333;BME280;69652;51.864;-2.246;2024-03-02T02:14:37;98764.66;;;4.40;88.28
80333;BME280;69652;51.864;-2.246;2024-03-02T02:17:02;98760.38;;;4.39;89.14
80333;BME280;69652;51.864;-2.246;2024-03-02T02:19:28;98769.53;;;4.38;88.77
80333;BME280;69652;51.864;-2.246;2024-03-02T02:21:54;98764.34;;;4.41;90.19
80333;BME280;69652;51.864;-2.246;2024-03-02T02:24:20;98756.59;;;4.40;89.54
80333;BME280;69652;51.864;-2.246;2024-03-02T02:26:45;98760.88;;;4.41;88.71
80333;BME280;69652;51.864;-2.246;2024-03-02T02:29:11;98751.72;;;4.42;89.30
80333;BME280;69652;51.864;-2.246;2024-03-02T02:31:38;98753.44;;;4.38;89.62
80333;BME280;69652;51.864;-2.246;2024-03-02T02:34:04;98747.44;;;4.41;90.13
80333;BME280;69652;51.864;-2.246;2024-03-02T02:36:31;98752.50;;;4.42;89.51
80333;BME280;69652;51.864;-2.246;2024-03-02T02:38:59;98748.59;;;4.48;91.01
80333;BME280;69652;51.864;-2.246;2024-03-02T02:41:25;98741.28;;;4.49;91.00
80333;BME280;69652;51.864;-2.246;2024-03-02T02:43:51;98738.94;;;4.47;90.16
80333;BME280;69652;51.864;-2.246;2024-03-02T02:46:16;98740.84;;;4.47;90.54
80333;BME280;69652;51.864;-2.246;2024-03-02T02:48:42;98736.72;;;4.49;90.46
80333;BME280;69652;51.864;-2.246;2024-03-02T02:51:07;98738.59;;;4.49;89.11
80333;BME280;69652;51.864;-2.246;2024-03-02T02:53:33;98732.47;;;4.48;89.07
80333;BME280;69652;51.864;-2.246;2024-03-02T02:56:00;98731.69;;;4.48;90.02
80333;BME280;69652;51.864;-2.246;2024-03-02T02:58:26;98733.72;;;4.51;89.69
80333;BME280;69652;51.864;-2.246;2024-03-02T03:00:52;98718.69;;;4.50;89.57
80333;BME280;69652;51.864;-2.246;2024-03-02T03:03:19;98720.16;;;4.56;89.88
80333;BME280;69652;51.864;-2.246;2024-03-02T03:05:45;98726.03;;;4.58;88.54
80333;BME280;69652;51.864;-2.246;2024-03-02T03:08:11;98719.84;;;4.57;89.52
80333;BME280;69652;51.864;-2.246;2024-03-02T03:10:36;98719.84;;;4.57;89.80
80333;BME280;69652;51.864;-2.246;2024-03-02T03:13:02;98727.59;;;4.59;89.47
80333;BME280;69652;51.864;-2.246;2024-03-02T03:15:27;98731.88;;;4.60;90.02
80333;BME280;69652;51.864;-2.246;2024-03-02T03:17:53;98719.88;;;4.66;89.67
80333;BME280;69652;51.864;-2.246;2024-03-02T03:20:18;98715.75;;;4.68;90.57
80333;BME280;69652;51.864;-2.246;2024-03-02T03:22:44;98716.88;;;4.67;89.66
80333;BME280;69652;51.864;-2.246;2024-03-02T03:25:10;98705.63;;;4.65;90.15
80333;BME280;69652;51.864;-2.246;2024-03-02T03:27:35;98703.91;;;4.69;90.28
80333;BME280;69652;51.864;-2.246;2024-03-02T03:30:01;98696.34;;;4.71;89.53
80333;BME280;69652;51.864;-2.246;2024-03-02T03:32:27;98691.28;;;4.70;90.25
80333;BME280;69652;51.864;-2.246;2024-03-02T03:34:52;98697.75;;;4.69;90.82
80333;BME280;69652;51.864;-2.246;2024-03-02T03:37:18;98689.69;;;4.69;90.81
80333;BME280;69652;51.864;-2.246;2024-03-02T03:39:43;98681.63;;;4.69;90.53
80333;BME280;69652;51.864;-2.246;2024-03-02T03:42:09;98681.63;;;4.69;89.84
80333;BME280;69652;51.864;-2.246;2024-03-02T03:44:34;98675.16;;;4.70;90.71
80333;BME280;69652;51.864;-2.246;2024-03-02T03:47:00;98672.47;;;4.70;90.38
80333;BME280;69652;51.864;-2.246;2024-03-02T03:49:27;98666.78;;;4.71;91.15
80333;BME280;69652;51.864;-2.246;2024-03-02T03:51:52;98663.13;;;4.67;90.34
80333;BME280;69652;51.864;-2.246;2024-03-02T03:54:18;98664.41;;;4.70;90.76
80333;BME280;69652;51.864;-2.246;2024-03-02T03:56:43;98657.44;;;4.69;91.05
80333;BME280;69652;51.864;-2.246;2024-03-02T03:59:09;98660.13;;;4.69;91.37
80333;BME280;69652;51.864;-2.246;2024-03-02T04:01:34;98661.53;;;4.66;89.66
80333;BME280;69652;51.864;-2.246;2024-03-02T04:04:00;98652.06;;;4.69;91.53
80333;BME280;69652;51.864;-2.246;2024-03-02T04:06:27;98651.41;;;4.72;90.21
80333;BME280;69652;51.864;-2.246;2024-03-02T04:08:52;98655.69;;;4.73;90.97
80333;BME280;69652;51.864;-2.246;2024-03-02T04:11:18;98656.97;;;4.76;91.80
80333;BME280;69652;51.864;-2.246;2024-03-02T04:13:43;98646.84;;;4.72;90.97
80333;BME280;69652;51.864;-2.246;2024-03-02T04:16:09;98650.31;;;4.73;90.58
80333;BME280;69652;51.864;-2.246;2024-03-02T04:18:34;98645.28;;;4.71;90.31
80333;BME280;69652;51.864;-2.246;2024-03-02T04:21:00;98646.03;;;4.72;90.96
80333;BME280;69652;51.864;-2.246;2024-03-02T04:23:28;98644.50;;;4.71;91.40
80333;BME280;69652;51.864;-2.246;2024-03-02T04:25:53;98646.03;;;4.72;91.33
80333;BME280;69652;51.864;-2.246;2024-03-02T04:28:19;98642.25;;;4.73;91.09
80333;BME280;69652;51.864;-2.246;2024-03-02T04:30:45;98643.84;;;4.74;90.59
80333;BME280;69652;51.864;-2.246;2024-03-02T04:33:10;98632.78;;;4.76;91.40
80333;BME280;69652;51.864;-2.246;2024-03-02T04:35:36;98635.16;;;4.77;90.78
80333;BME280;69652;51.864;-2.246;2024-03-02T04:38:02;98630.41;;;4.74;91.41
80333;BME280;69652;51.864;-2.246;2024-03-02T04:40:27;98628.38;;;4.71;91.54
80333;BME280;69652;51.864;-2.246;2024-03-02T04:42:53;98624.09;;;4.70;93.04
80333;BME280;69652;51.864;-2.246;2024-03-02T04:45:18;98632.16;;;4.70;91.69
80333;BME280;69652;51.864;-2.246;2024-03-02T04:47:44;98624.41;;;4.68;93.40
80333;BME280;69652;51.864;-2.246;2024-03-02T04:50:09;98628.03;;;4.64;92.96
80333;BME280;69652;51.864;-2.246;2024-03-02T04:52:35;98632.13;;;4.61;92.47
80333;BME280;69652;51.864;-2.246;2024-03-02T04:55:01;98635.59;;;4.53;92.80
80333;BME280;69652;51.864;-2.246;2024-03-02T04:57:56;98627.38;;;4.50;91.88
80333;BME280;69652;51.864;-2.246;2024-03-02T05:00:21;98633.84;;;4.49;92.88
80333;BME280;69652;51.864;-2.246;2024-03-02T05:02:47;98642.69;;;4.41;93.11
80333;BME280;69652;51.864;-2.246;2024-03-02T05:05:12;98642.50;;;4.28;92.16
80333;BME280;69652;51.864;-2.246;2024-03-02T05:07:40;98638.41;;;4.22;92.69
80333;BME280;69652;51.864;-2.246;2024-03-02T05:10:07;98648.88;;;4.02;91.59
80333;BME280;69652;51.864;-2.246;2024-03-02T05:12:33;98642.06;;;3.87;92.33
80333;BME280;69652;51.864;-2.246;2024-03-02T05:15:12;98643.22;;;3.63;92.12
80333;BME280;69652;51.864;-2.246;2024-03-02T05:17:42;98638.38;;;3.43;91.27
80333;BME280;69652;51.864;-2.246;2024-03-02T05:20:11;98634.81;;;3.25;92.33
80333;BME280;69652;51.864;-2.246;2024-03-02T05:22:37;98645.72;;;3.07;91.85
80333;BME280;69652;51.864;-2.246;2024-03-02T05:25:04;98647.13;;;3.04;92.68
80333;BME280;69652;51.864;-2.246;2024-03-02T05:27:30;98647.53;;;2.98;93.92
80333;BME280;69652;51.864;-2.246;2024-03-02T05:29:58;98647.66;;;2.93;93.35
80333;BME280;69652;51.864;-2.246;2024-03-02T05:32:23;98648.69;;;2.83;93.94
80333;BME280;69652;51.864;-2.246;2024-03-02T05:34:48;98650.19;;;2.75;94.02
80333;BME280;69652;51.864;-2.246;2024-03-02T05:37:16;98651.81;;;2.63;94.32
80333;BME280;69652;51.864;-2.246;2024-03-02T05:39:41;98653.03;;;2.57;94.32
80333;BME280;69652;51.864;-2.246;2024-03-02T05:42:08;98653.31;;;2.55;93.48
80333;BME280;69652;51.864;-2.246;2024-03-02T05:44:34;98646.56;;;2.58;94.59
80333;BME280;69652;51.864;-2.246;2024-03-02T05:47:00;98644.78;;;2.53;93.77
80333;BME280;69652;51.864;-2.246;2024-03-02T05:49:25;98637.66;;;2.48;94.02
80333;BME280;69652;51.864;-2.246;2024-03-02T05:51:51;98637.34;;;2.50;93.93
80333;BME280;69652;51.864;-2.246;2024-03-02T05:54:16;98628.81;;;2.48;94.51
80333;BME280;69652;51.864;-2.246;2024-03-02T05:56:41;98625.97;;;2.44;94.65
80333;BME280;69652;51.864;-2.246;2024-03-02T05:59:07;98626.16;;;2.48;94.77
80333;BME280;69652;51.864;-2.246;2024-03-02T06:04:04;98614.47;;;2.44;94.20
80333;BME280;69652;51.864;-2.246;2024-03-02T06:06:30;98602.19;;;2.43;94.71
80333;BME280;69652;51.864;-2.246;2024-03-02T06:08:57;98603.16;;;2.47;95.87
80333;BME280;69652;51.864;-2.246;2024-03-02T06:11:23;98609.00;;;2.49;95.47
80333;BME280;69652;51.864;-2.246;2024-03-02T06:13:50;98603.34;;;2.50;95.10
80333;BME280;69652;51.864;-2.246;2024-03-02T06:16:15;98598.78;;;2.51;95.85
80333;BME280;69652;51.864;-2.246;2024-03-02T06:18:40;98584.28;;;2.52;95.47
80333;BME280;69652;51.864;-2.246;2024-03-02T06:21:06;98591.94;;;2.59;95.49
80333;BME280;69652;51.864;-2.246;2024-03-02T06:23:31;98588.63;;;2.62;96.45
80333;BME280;69652;51.864;-2.246;2024-03-02T06:25:57;98592.38;;;2.61;95.97
80333;BME280;69652;51.864;-2.246;2024-03-02T06:28:22;98584.34;;;2.61;96.18
80333;BME280;69652;51.864;-2.246;2024-03-02T06:30:48;98573.84;;;2.64;96.50
80333;BME280;69652;51.864;-2.246;2024-03-02T06:33:14;98585.84;;;2.67;96.30
80333;BME280;69652;51.864;-2.246;2024-03-02T06:35:39;98575.13;;;2.67;96.36
80333;BME280;69652;51.864;-2.246;2024-03-02T06:38:04;98562.03;;;2.65;96.92
80333;BME280;69652;51.864;-2.246;2024-03-02T06:40:30;98583.66;;;2.69;96.91
80333;BME280;69652;51.864;-2.246;2024-03-02T06:42:55;98571.16;;;2.64;96.99
80333;BME280;69652;51.864;-2.246;2024-03-02T06:45:21;98576.72;;;2.68;97.37
80333;BME280;69652;51.864;-2.246;2024-03-02T06:47:46;98573.25;;;2.67;96.97
80333;BME280;69652;51.864;-2.246;2024-03-02T06:50:12;98569.16;;;2.70;97.09
80333;BME280;69652;51.864;-2.246;2024-03-02T06:52:38;98561.59;;;2.72;97.27
80333;BME280;69652;51.864;-2.246;2024-03-02T06:55:04;98563.03;;;2.69;97.26
80333;BME280;69652;51.864;-2.246;2024-03-02T06:57:30;98567.75;;;2.72;97.60
80333;BME280;69652;51.864;-2.246;2024-03-02T06:59:55;98566.34;;;2.75;97.00
80333;BME280;69652;51.864;-2.246;2024-03-02T07:02:24;98561.00;;;2.75;97.53
80333;BME280;69652;51.864;-2.246;2024-03-02T07:04:52;98568.94;;;2.80;97.55
80333;BME280;69652;51.864;-2.246;2024-03-02T07:07:18;98578.41;;;2.86;97.95
80333;BME280;69652;51.864;-2.246;2024-03-02T07:09:43;98581.88;;;2.86;96.45
80333;BME280;69652;51.864;-2.246;2024-03-02T07:12:09;98580.38;;;2.94;96.85
80333;BME280;69652;51.864;-2.246;2024-03-02T07:14:35;98578.78;;;2.93;96.89
80333;BME280;69652;51.864;-2.246;2024-03-02T07:17:22;98572.94;;;2.91;96.45
80333;BME280;69652;51.864;-2.246;2024-03-02T07:19:47;98559.53;;;2.91;96.75
80333;BME280;69652;51.864;-2.246;2024-03-02T07:22:13;98559.25;;;2.93;96.64
80333;BME280;69652;51.864;-2.246;2024-03-02T07:24:42;98554.03;;;2.96;97.45
80333;BME280;69652;51.864;-2.246;2024-03-02T07:27:08;98556.31;;;3.03;96.72
80333;BME280;69652;51.864;-2.246;2024-03-02T07:29:34;98542.31;;;3.06;97.14
80333;BME280;69652;51.864;-2.246;2024-03-02T07:31:59;98553.81;;;3.06;96.59
80333;BME280;69652;51.864;-2.246;2024-03-02T07:34:25;98547.41;;;3.16;96.26
80333;BME280;69652;51.864;-2.246;2024-03-02T07:36:50;98547.25;;;3.21;97.71
80333;BME280;69652;51.864;-2.246;2024-03-02T07:39:16;98550.91;;;3.25;97.23
80333;BME280;69652;51.864;-2.246;2024-03-02T07:41:41;98546.97;;;3.31;97.51
80333;BME280;69652;51.864;-2.246;2024-03-02T07:44:07;98557.41;;;3.33;97.36
80333;BME280;69652;51.864;-2.246;2024-03-02T07:46:33;98562.81;;;3.41;97.07
80333;BME280;69652;51.864;-2.246;2024-03-02T07:48:58;98568.50;;;3.40;96.12
80333;BME280;69652;51.864;-2.246;2024-03-02T07:51:24;98561.84;;;3.37;96.16
80333;BME280;69652;51.864;-2.246;2024-03-02T07:53:49;98564.84;;;3.36;94.67
80333;BME280;69652;51.864;-2.246;2024-03-02T07:56:14;98571.97;;;3.40;94.65
80333;BME280;69652;51.864;-2.246;2024-03-02T07:58:46;98569.75;;;3.42;95.33
80333;BME280;69652;51.864;-2.246;2024-03-02T08:01:13;98567.81;;;3.34;95.18
80333;BME280;69652;51.864;-2.246;2024-03-02T08:03:38;98568.78;;;3.38;94.94
80333;BME280;69652;51.864;-2.246;2024-03-02T08:06:04;98562.94;;;3.36;95.69
80333;BME280;69652;51.864;-2.246;2024-03-02T08:08:29;98563.28;;;3.43;95.73
80333;BME280;69652;51.864;-2.246;2024-03-02T08:10:55;98575.47;;;3.49;95.74
80333;BME280;69652;51.864;-2.246;2024-03-02T08:13:20;98582.41;;;3.50;94.54
80333;BME280;69652;51.864;-2.246;2024-03-02T08:15:46;98584.31;;;3.50;95.38
80333;BME280;69652;51.864;-2.246;2024-03-02T08:18:12;98593.00;;;3.55;95.80
80333;BME280;69652;51.864;-2.246;2024-03-02T08:20:37;98605.56;;;3.46;95.14
80333;BME280;69652;51.864;-2.246;2024-03-02T08:23:04;98614.56;;;3.19;94.58
80333;BME280;69652;51.864;-2.246;2024-03-02T08:25:30;98614.22;;;3.12;94.82
80333;BME280;69652;51.864;-2.246;2024-03-02T08:27:56;98616.00;;;3.17;95.89
80333;BME280;69652;51.864;-2.246;2024-03-02T08:30:21;98615.44;;;3.06;95.97
80333;BME280;69652;51.864;-2.246;2024-03-02T08:32:47;98615.53;;;3.23;95.30
80333;BME280;69652;51.864;-2.246;2024-03-02T08:35:13;98627.91;;;3.33;95.27
80333;BME280;69652;51.864;-2.246;2024-03-02T08:37:42;98632.53;;;3.41;94.24
80333;BME280;69652;51.864;-2.246;2024-03-02T08:40:09;98627.53;;;3.48;93.80
80333;BME280;69652;51.864;-2.246;2024-03-02T08:42:34;98641.31;;;3.33;93.70
80333;BME280;69652;51.864;-2.246;2024-03-02T08:45:00;98628.19;;;3.32;94.12
80333;BME280;69652;51.864;-2.246;2024-03-02T08:47:27;98636.25;;;3.32;94.00
80333;BME280;69652;51.864;-2.246;2024-03-02T08:49:52;98640.81;;;3.31;93.89
80333;BME280;69652;51.864;-2.246;2024-03-02T08:52:18;98654.16;;;3.22;92.70
80333;BME280;69652;51.864;-2.246;2024-03-02T08:54:43;98657.41;;;3.11;93.33
80333;BME280;69652;51.864;-2.246;2024-03-02T08:57:09;98663.84;;;3.10;94.27
80333;BME280;69652;51.864;-2.246;2024-03-02T08:59:35;98676.91;;;3.03;93.57
80333;BME280;69652;51.864;-2.246;2024-03-02T09:02:00;98670.34;;;2.95;94.92
80333;BME280;69652;51.864;-2.246;2024-03-02T09:04:26;98666.31;;;2.84;94.61
80333;BME280;69652;51.864;-2.246;2024-03-02T09:06:51;98675.66;;;2.86;95.57
80333;BME280;69652;51.864;-2.246;2024-03-02T09:09:17;98677.13;;;2.93;95.15
80333;BME280;69652;51.864;-2.246;2024-03-02T09:11:42;98690.34;;;2.89;94.10
80333;BME280;69652;51.864;-2.246;2024-03-02T09:14:08;98687.16;;;2.87;93.77
80333;BME280;69652;51.864;-2.246;2024-03-02T09:16:33;98688.88;;;2.83;94.56
80333;BME280;69652;51.864;-2.246;2024-03-02T09:18:59;98695.63;;;2.80;95.69
80333;BME280;69652;51.864;-2.246;2024-03-02T09:21:25;98705.84;;;2.78;95.00
80333;BME280;69652;51.864;-2.246;2024-03-02T09:23:51;98696.75;;;2.66;96.82
80333;BME280;69652;51.864;-2.246;2024-03-02T09:26:16;98701.88;;;2.76;96.51
80333;BME280;69652;51.864;-2.246;2024-03-02T09:28:45;98706.84;;;2.82;95.81
80333;BME280;69652;51.864;-2.246;2024-03-02T09:31:10;98712.56;;;2.89;93.90
80333;BME280;69652;51.864;-2.246;2024-03-02T09:33:37;98711.19;;;2.92;94.70
80333;BME280;69652;51.864;-2.246;2024-03-02T09:36:04;98719.38;;;2.96;94.89
80333;BME280;69652;51.864;-2.246;2024-03-02T09:38:32;98723.94;;;2.95;94.91
80333;BME280;69652;51.864;-2.246;2024-03-02T09:40:59;98735.56;;;3.04;93.88
80333;BME280;69652;51.864;-2.246;2024-03-02T09:43:24;98731.28;;;3.03;92.99
80333;BME280;69652;51.864;-2.246;2024-03-02T09:45:50;98734.16;;;3.07;94.56
80333;BME280;69652;51.864;-2.246;2024-03-02T09:48:16;98738.41;;;3.08;95.07
80333;BME280;69652;51.864;-2.246;2024-03-02T09:50:43;98733.66;;;3.05;94.34
80333;BME280;69652;51.864;-2.246;2024-03-02T09:53:10;98743.38;;;3.14;94.56
80333;BME280;69652;51.864;-2.246;2024-03-02T09:55:37;98741.69;;;3.18;94.87
80333;BME280;69652;51.864;-2.246;2024-03-02T09:58:03;98747.03;;;3.18;94.29
80333;BME280;69652;51.864;-2.246;2024-03-02T10:00:28;98748.38;;;3.30;95.05
80333;BME280;69652;51.864;-2.246;2024-03-02T10:02:54;98754.84;;;3.51;94.96
80333;BME280;69652;51.864;-2.246;2024-03-02T10:05:27;98746.97;;;3.54;92.87
80333;BME280;69652;51.864;-2.246;2024-03-02T10:08:00;98752.28;;;3.68;93.91
80333;BME280;69652;51.864;-2.246;2024-03-02T10:10:35;98754.66;;;3.70;93.89
80333;BME280;69652;51.864;-2.246;2024-03-02T10:13:05;98769.13;;;3.60;93.49
80333;BME280;69652;51.864;-2.246;2024-03-02T10:15:30;98768.66;;;3.44;92.99
80333;BME280;69652;51.864;-2.246;2024-03-02T10:17:56;98768.00;;;3.39;93.56
80333;BME280;69652;51.864;-2.246;2024-03-02T10:20:26;98777.44;;;3.36;94.21
80333;BME280;69652;51.864;-2.246;2024-03-02T10:22:55;98775.47;;;3.42;93.39
80333;BME280;69652;51.864;-2.246;2024-03-02T10:25:31;98778.31;;;3.45;93.89
80333;BME280;69652;51.864;-2.246;2024-03-02T10:27:58;98781.06;;;3.54;93.15
80333;BME280;69652;51.864;-2.246;2024-03-02T10:30:24;98793.16;;;3.65;93.14
80333;BME280;69652;51.864;-2.246;2024-03-02T10:32:49;98787.00;;;3.65;93.16
80333;BME280;69652;51.864;-2.246;2024-03-02T10:35:16;98795.34;;;3.63;92.84
80333;BME280;69652;51.864;-2.246;2024-03-02T10:37:42;98795.84;;;3.65;92.70
80333;BME280;69652;51.864;-2.246;2024-03-02T10:40:10;98793.84;;;3.57;91.96
80333;BME280;69652;51.864;-2.246;2024-03-02T10:42:38;98791.72;;;3.68;91.67
80333;BME280;69652;51.864;-2.246;2024-03-02T10:45:06;98797.72;;;3.87;91.71
80333;BME280;69652;51.864;-2.246;2024-03-02T10:47:33;98794.28;;;3.95;91.28
80333;BME280;69652;51.864;-2.246;2024-03-02T10:50:06;98810.16;;;3.83;90.09
80333;BME280;69652;51.864;-2.246;2024-03-02T10:52:36;98800.88;;;4.11;92.07
80333;BME280;69652;51.864;-2.246;2024-03-02T10:55:06;98801.78;;;3.84;89.73
80333;BME280;69652;51.864;-2.246;2024-03-02T10:57:53;98807.66;;;3.86;90.38
80333;BME280;69652;51.864;-2.246;2024-03-02T11:00:26;98818.81;;;3.80;91.31
80333;BME280;69652;51.864;-2.246;2024-03-02T11:03:04;98816.66;;;3.90;92.10
80333;BME280;69652;51.864;-2.246;2024-03-02T11:05:40;98814.22;;;4.03;91.88
80333;BME280;69652;51.864;-2.246;2024-03-02T11:08:13;98833.41;;;3.87;89.76
80333;BME280;69652;51.864;-2.246;2024-03-02T11:10:50;98826.97;;;3.97;91.19
80333;BME280;69652;51.864;-2.246;2024-03-02T11:13:22;98820.69;;;4.02;91.01
80333;BME280;69652;51.864;-2.246;2024-03-02T11:15:52;98832.31;;;3.88;90.00
80333;BME280;69652;51.864;-2.246;2024-03-02T11:18:20;98819.13;;;4.01;90.54
80333;BME280;69652;51.864;-2.246;2024-03-02T11:20:47;98829.75;;;4.14;90.41
80333;BME280;69652;51.864;-2.246;2024-03-02T11:23:13;98839.06;;;4.08;88.62
80333;BME280;69652;51.864;-2.246;2024-03-02T11:25:39;98828.84;;;4.19;89.24
80333;BME280;69652;51.864;-2.246;2024-03-02T11:28:08;98828.75;;;4.63;87.83
80333;BME280;69652;51.864;-2.246;2024-03-02T11:33:08;98837.31;;;4.34;88.55
80333;BME280;69652;51.864;-2.246;2024-03-02T11:35:38;98841.03;;;4.47;88.96
80333;BME280;69652;51.864;-2.246;2024-03-02T11:38:07;98839.50;;;4.63;88.39
80333;BME280;69652;51.864;-2.246;2024-03-02T11:40:32;98837.81;;;4.76;87.39
80333;BME280;69652;51.864;-2.246;2024-03-02T11:43:01;98846.44;;;4.56;87.18
80333;BME280;69652;51.864;-2.246;2024-03-02T11:45:27;98853.59;;;4.69;87.52
80333;BME280;69652;51.864;-2.246;2024-03-02T11:47:57;98843.84;;;4.82;87.50
80333;BME280;69652;51.864;-2.246;2024-03-02T11:50:48;98859.03;;;4.47;87.94
80333;BME280;69652;51.864;-2.246;2024-03-02T11:53:15;98849.13;;;4.56;89.42
80333;BME280;69652;51.864;-2.246;2024-03-02T11:55:41;98855.28;;;4.56;88.37
80333;BME280;69652;51.864;-2.246;2024-03-02T11:58:11;98862.09;;;4.62;88.12
80333;BME280;69652;51.864;-2.246;2024-03-02T12:00:37;98875.59;;;4.49;87.23
80333;BME280;69652;51.864;-2.246;2024-03-02T12:03:13;98856.19;;;4.52;88.67
80333;BME280;69652;51.864;-2.246;2024-03-02T12:05:40;98861.09;;;4.50;88.56
80333;BME280;69652;51.864;-2.246;2024-03-02T12:08:06;98857.25;;;4.42;88.11
80333;BME280;69652;51.864;-2.246;2024-03-02T12:10:33;98868.63;;;4.39;89.06
80333;BME280;69652;51.864;-2.246;2024-03-02T12:13:00;98862.06;;;4.54;88.92
80333;BME280;69652;51.864;-2.246;2024-03-02T12:15:27;98868.75;;;4.65;88.64
80333;BME280;69652;51.864;-2.246;2024-03-02T12:17:59;98868.63;;;4.39;87.35
80333;BME280;69652;51.864;-2.246;2024-03-02T12:20:27;98871.59;;;4.38;87.82
80333;BME280;69652;51.864;-2.246;2024-03-02T12:22:53;98879.25;;;4.44;88.58
80333;BME280;69652;51.864;-2.246;2024-03-02T12:25:20;98876.66;;;4.39;88.58
80333;BME280;69652;51.864;-2.246;2024-03-02T12:27:47;98879.19;;;4.35;88.81
80333;BME280;69652;51.864;-2.246;2024-03-02T12:30:16;98884.34;;;4.23;89.37
80333;BME280;69652;51.864;-2.246;2024-03-02T12:32:41;98881.56;;;4.15;88.98
80333;BME280;69652;51.864;-2.246;2024-03-02T12:35:07;98882.75;;;4.00;91.23
80333;BME280;69652;51.864;-2.246;2024-03-02T12:37:33;98883.41;;;4.06;91.79
80333;BME280;69652;51.864;-2.246;2024-03-02T12:39:59;98881.97;;;3.99;91.74
80333;BME280;69652;51.864;-2.246;2024-03-02T12:42:24;98879.69;;;4.15;90.99
80333;BME280;69652;51.864;-2.246;2024-03-02T12:44:53;98877.88;;;4.24;89.59
80333;BME280;69652;51.864;-2.246;2024-03-02T12:47:21;98884.69;;;4.30;89.78
80333;BME280;69652;51.864;-2.246;2024-03-02T12:49:47;98891.16;;;4.29;89.45
80333;BME280;69652;51.864;-2.246;2024-03-02T12:52:13;98886.34;;;4.18;91.05
80333;BME280;69652;51.864;-2.246;2024-03-02T12:54:38;98906.22;;;3.94;91.25
80333;BME280;69652;51.864;-2.246;2024-03-02T12:57:04;98888.56;;;3.80;92.11
80333;BME280;69652;51.864;-2.246;2024-03-02T12:59:30;98899.19;;;3.85;92.34
80333;BME280;69652;51.864;-2.246;2024-03-02T13:01:56;98898.56;;;3.66;91.97
80333;BME280;69652;51.864;-2.246;2024-03-02T13:04:27;98892.22;;;3.61;95.02
80333;BME280;69652;51.864;-2.246;2024-03-02T13:06:54;98893.06;;;3.71;94.47